Weather at Mata'aho Airport

Public forecast

Using degrees Celsius for public forecast. Weather courtesy of forecast.io.

Current aviation weather report (METAR) for Mata'aho Airport

Report is more than 6 hours old.

Retrieved 2020/03/11 06:00 UTC (2 years ago):

NFTO 110600Z08004KT 9999 FEW018 BKN290 28/25 Q1010

Closest aviation forecast (TAF) to Mata'aho Airport

Closest forecast is Pointe Vele Airport, 160.1 nm (296.5 km) WNW. Retrieved 2022/08/09 06:00 UTC (2 hours ago):

TAF NLWF 090500Z 0906/1006 07006KT 9999 SCT020 TEMPO 0906/0921 4000 SHRA BKN012 SCT030TCU PROB30 TEMPO 0909/0915 2000 SHRA BKN010 FEW020CB